sensor_id;sensor_type;location;lat;lon;timestamp;temperature;humidity
22006;DHT22;11167;46.988;15.470;2022-12-10T00:00:33;5.60;93.70
22006;DHT22;11167;46.988;15.470;2022-12-10T00:02:34;5.60;93.70
22006;DHT22;11167;46.988;15.470;2022-12-10T00:04:35;5.60;94.00
22006;DHT22;11167;46.988;15.470;2022-12-10T00:06:38;5.60;93.40
22006;DHT22;11167;46.988;15.470;2022-12-10T00:08:40;5.60;93.70
22006;DHT22;11167;46.988;15.470;2022-12-10T00:10:41;5.60;93.70
22006;DHT22;11167;46.988;15.470;2022-12-10T00:12:42;5.60;93.70
22006;DHT22;11167;46.988;15.470;2022-12-10T00:14:43;5.60;93.70
22006;DHT22;11167;46.988;15.470;2022-12-10T00:16:45;5.60;93.70
22006;DHT22;11167;46.988;15.470;2022-12-10T00:18:46;5.60;93.70
22006;DHT22;11167;46.988;15.470;2022-12-10T00:20:48;5.60;93.70
22006;DHT22;11167;46.988;15.470;2022-12-10T00:22:50;5.60;93.70
22006;DHT22;11167;46.988;15.470;2022-12-10T00:24:53;5.60;93.70
22006;DHT22;11167;46.988;15.470;2022-12-10T00:26:56;5.60;93.60
22006;DHT22;11167;46.988;15.470;2022-12-10T00:29:00;5.60;93.70
22006;DHT22;11167;46.988;15.470;2022-12-10T00:31:05;5.60;93.70
22006;DHT22;11167;46.988;15.470;2022-12-10T00:33:08;5.60;93.70
22006;DHT22;11167;46.988;15.470;2022-12-10T00:35:09;5.60;93.70
22006;DHT22;11167;46.988;15.470;2022-12-10T00:37:11;5.50;93.70
22006;DHT22;11167;46.988;15.470;2022-12-10T00:39:15;5.60;93.70
22006;DHT22;11167;46.988;15.470;2022-12-10T00:41:17;5.60;93.80
22006;DHT22;11167;46.988;15.470;2022-12-10T00:43:19;5.60;93.80
22006;DHT22;11167;46.988;15.470;2022-12-10T00:45:20;5.60;93.80
22006;DHT22;11167;46.988;15.470;2022-12-10T00:47:22;5.50;93.70
22006;DHT22;11167;46.988;15.470;2022-12-10T00:49:23;5.50;93.70
22006;DHT22;11167;46.988;15.470;2022-12-10T00:51:26;5.60;93.80
22006;DHT22;11167;46.988;15.470;2022-12-10T00:53:31;5.60;93.80
22006;DHT22;11167;46.988;15.470;2022-12-10T00:55:34;5.60;93.70
22006;DHT22;11167;46.988;15.470;2022-12-10T00:57:35;5.60;93.80
22006;DHT22;11167;46.988;15.470;2022-12-10T00:59:38;5.60;93.80
22006;DHT22;11167;46.988;15.470;2022-12-10T01:01:42;5.60;93.80
22006;DHT22;11167;46.988;15.470;2022-12-10T01:03:44;5.60;93.80
22006;DHT22;11167;46.988;15.470;2022-12-10T01:05:46;5.60;93.80
22006;DHT22;11167;46.988;15.470;2022-12-10T01:07:50;5.60;93.80
22006;DHT22;11167;46.988;15.470;2022-12-10T01:09:53;5.60;93.80
22006;DHT22;11167;46.988;15.470;2022-12-10T01:11:57;5.60;93.80
22006;DHT22;11167;46.988;15.470;2022-12-10T01:13:59;5.60;93.80
22006;DHT22;11167;46.988;15.470;2022-12-10T01:16:05;5.60;93.80
22006;DHT22;11167;46.988;15.470;2022-12-10T01:18:08;5.60;93.80
22006;DHT22;11167;46.988;15.470;2022-12-10T01:20:10;5.60;93.80
22006;DHT22;11167;46.988;15.470;2022-12-10T01:22:11;5.60;93.80
22006;DHT22;11167;46.988;15.470;2022-12-10T01:24:12;5.60;93.80
22006;DHT22;11167;46.988;15.470;2022-12-10T01:26:16;5.60;93.80
22006;DHT22;11167;46.988;15.470;2022-12-10T01:28:18;5.60;93.80
22006;DHT22;11167;46.988;15.470;2022-12-10T01:30:19;5.50;93.80
22006;DHT22;11167;46.988;15.470;2022-12-10T01:32:20;5.60;93.80
22006;DHT22;11167;46.988;15.470;2022-12-10T01:34:23;5.60;93.80
22006;DHT22;11167;46.988;15.470;2022-12-10T01:36:27;5.50;93.70
22006;DHT22;11167;46.988;15.470;2022-12-10T01:39:01;5.60;93.80
22006;DHT22;11167;46.988;15.470;2022-12-10T01:41:03;5.60;93.80
22006;DHT22;11167;46.988;15.470;2022-12-10T01:45:42;5.50;93.70
22006;DHT22;11167;46.988;15.470;2022-12-10T01:47:44;5.50;93.80
22006;DHT22;11167;46.988;15.470;2022-12-10T01:49:45;5.60;93.80
22006;DHT22;11167;46.988;15.470;2022-12-10T01:51:50;5.50;93.80
22006;DHT22;11167;46.988;15.470;2022-12-10T01:53:51;5.50;93.80
22006;DHT22;11167;46.988;15.470;2022-12-10T01:55:52;5.50;93.80
22006;DHT22;11167;46.988;15.470;2022-12-10T01:57:53;5.50;93.80
22006;DHT22;11167;46.988;15.470;2022-12-10T02:00:01;5.60;93.80
22006;DHT22;11167;46.988;15.470;2022-12-10T02:11:31;5.50;94.10
22006;DHT22;11167;46.988;15.470;2022-12-10T02:13:50;5.50;93.80
22006;DHT22;11167;46.988;15.470;2022-12-10T02:15:51;5.50;93.80
22006;DHT22;11167;46.988;15.470;2022-12-10T02:18:08;5.50;93.80
22006;DHT22;11167;46.988;15.470;2022-12-10T02:22:33;5.50;93.80
22006;DHT22;11167;46.988;15.470;2022-12-10T02:24:36;5.60;93.90
22006;DHT22;11167;46.988;15.470;2022-12-10T02:29:07;5.50;93.90
22006;DHT22;11167;46.988;15.470;2022-12-10T02:31:10;5.50;93.80
22006;DHT22;11167;46.988;15.470;2022-12-10T02:33:16;5.60;93.90
22006;DHT22;11167;46.988;15.470;2022-12-10T02:35:23;5.50;93.80
22006;DHT22;11167;46.988;15.470;2022-12-10T02:37:30;5.60;93.90
22006;DHT22;11167;46.988;15.470;2022-12-10T02:39:36;5.60;93.90
22006;DHT22;11167;46.988;15.470;2022-12-10T02:41:44;5.60;93.90
22006;DHT22;11167;46.988;15.470;2022-12-10T02:43:45;5.50;93.90
22006;DHT22;11167;46.988;15.470;2022-12-10T02:45:46;5.60;93.90
22006;DHT22;11167;46.988;15.470;2022-12-10T02:47:48;5.60;93.90
22006;DHT22;11167;46.988;15.470;2022-12-10T02:49:53;5.60;93.90
22006;DHT22;11167;46.988;15.470;2022-12-10T02:51:55;5.60;93.90
22006;DHT22;11167;46.988;15.470;2022-12-10T02:54:04;5.60;93.90
22006;DHT22;11167;46.988;15.470;2022-12-10T02:56:16;5.60;93.90
22006;DHT22;11167;46.988;15.470;2022-12-10T02:58:27;5.60;93.90
22006;DHT22;11167;46.988;15.470;2022-12-10T03:00:27;5.60;93.90
22006;DHT22;11167;46.988;15.470;2022-12-10T03:02:36;5.60;93.90
22006;DHT22;11167;46.988;15.470;2022-12-10T03:05:00;5.60;93.90
22006;DHT22;11167;46.988;15.470;2022-12-10T03:07:08;5.60;93.90
22006;DHT22;11167;46.988;15.470;2022-12-10T03:11:21;5.60;93.90
22006;DHT22;11167;46.988;15.470;2022-12-10T03:13:27;5.60;93.90
22006;DHT22;11167;46.988;15.470;2022-12-10T03:15:29;5.60;93.90
22006;DHT22;11167;46.988;15.470;2022-12-10T03:17:32;5.60;93.90
22006;DHT22;11167;46.988;15.470;2022-12-10T03:19:36;5.60;93.90
22006;DHT22;11167;46.988;15.470;2022-12-10T03:21:39;5.60;93.90
22006;DHT22;11167;46.988;15.470;2022-12-10T03:23:44;5.60;93.90
22006;DHT22;11167;46.988;15.470;2022-12-10T03:25:48;5.60;93.90
22006;DHT22;11167;46.988;15.470;2022-12-10T03:27:51;5.60;93.90
22006;DHT22;11167;46.988;15.470;2022-12-10T03:29:54;5.60;93.90
22006;DHT22;11167;46.988;15.470;2022-12-10T03:31:58;5.60;94.00
22006;DHT22;11167;46.988;15.470;2022-12-10T03:34:00;5.60;93.90
22006;DHT22;11167;46.988;15.470;2022-12-10T03:36:03;5.60;93.90
22006;DHT22;11167;46.988;15.470;2022-12-10T03:38:06;5.60;93.90
22006;DHT22;11167;46.988;15.470;2022-12-10T03:40:08;5.60;93.90
22006;DHT22;11167;46.988;15.470;2022-12-10T03:42:11;5.60;93.90
22006;DHT22;11167;46.988;15.470;2022-12-10T03:44:12;5.60;93.90
22006;DHT22;11167;46.988;15.470;2022-12-10T03:46:14;5.60;93.90
22006;DHT22;11167;46.988;15.470;2022-12-10T03:48:15;5.60;93.90
22006;DHT22;11167;46.988;15.470;2022-12-10T03:50:16;5.60;93.90
22006;DHT22;11167;46.988;15.470;2022-12-10T03:52:17;5.70;94.00
22006;DHT22;11167;46.988;15.470;2022-12-10T03:54:19;5.60;94.00
22006;DHT22;11167;46.988;15.470;2022-12-10T03:56:21;5.70;94.00
22006;DHT22;11167;46.988;15.470;2022-12-10T03:58:22;5.70;94.00
22006;DHT22;11167;46.988;15.470;2022-12-10T04:00:23;5.70;94.00
22006;DHT22;11167;46.988;15.470;2022-12-10T04:02:25;5.70;93.90
22006;DHT22;11167;46.988;15.470;2022-12-10T04:04:26;5.70;94.00
22006;DHT22;11167;46.988;15.470;2022-12-10T04:06:27;5.70;94.30
22006;DHT22;11167;46.988;15.470;2022-12-10T04:08:28;5.70;93.90
22006;DHT22;11167;46.988;15.470;2022-12-10T04:10:30;5.70;94.00
22006;DHT22;11167;46.988;15.470;2022-12-10T04:12:31;5.70;94.00
22006;DHT22;11167;46.988;15.470;2022-12-10T04:14:32;5.70;93.90
22006;DHT22;11167;46.988;15.470;2022-12-10T04:16:51;5.70;94.00
22006;DHT22;11167;46.988;15.470;2022-12-10T04:18:59;5.70;93.90
22006;DHT22;11167;46.988;15.470;2022-12-10T04:21:00;5.70;94.00
22006;DHT22;11167;46.988;15.470;2022-12-10T04:23:20;5.70;94.00
22006;DHT22;11167;46.988;15.470;2022-12-10T04:25:40;5.70;94.00
22006;DHT22;11167;46.988;15.470;2022-12-10T04:28:00;5.70;94.00
22006;DHT22;11167;46.988;15.470;2022-12-10T04:30:01;5.70;94.00
22006;DHT22;11167;46.988;15.470;2022-12-10T04:32:03;5.70;94.00
22006;DHT22;11167;46.988;15.470;2022-12-10T04:34:04;5.70;94.00
22006;DHT22;11167;46.988;15.470;2022-12-10T04:36:06;5.70;94.00
22006;DHT22;11167;46.988;15.470;2022-12-10T04:38:07;5.70;94.00
22006;DHT22;11167;46.988;15.470;2022-12-10T04:40:09;5.70;94.00
22006;DHT22;11167;46.988;15.470;2022-12-10T04:42:10;5.70;94.00
22006;DHT22;11167;46.988;15.470;2022-12-10T04:44:12;5.70;94.00
22006;DHT22;11167;46.988;15.470;2022-12-10T04:46:13;5.70;94.00
22006;DHT22;11167;46.988;15.470;2022-12-10T04:48:14;5.70;94.00
22006;DHT22;11167;46.988;15.470;2022-12-10T04:50:15;5.70;94.00
22006;DHT22;11167;46.988;15.470;2022-12-10T04:52:17;5.70;94.00
22006;DHT22;11167;46.988;15.470;2022-12-10T04:54:18;5.70;94.00
22006;DHT22;11167;46.988;15.470;2022-12-10T04:56:20;5.80;94.00
22006;DHT22;11167;46.988;15.470;2022-12-10T04:58:21;5.70;94.00
22006;DHT22;11167;46.988;15.470;2022-12-10T05:00:24;5.70;94.00
22006;DHT22;11167;46.988;15.470;2022-12-10T05:02:25;5.80;94.00
22006;DHT22;11167;46.988;15.470;2022-12-10T05:04:26;5.70;94.00
22006;DHT22;11167;46.988;15.470;2022-12-10T05:06:28;5.70;94.00
22006;DHT22;11167;46.988;15.470;2022-12-10T05:08:30;5.80;94.00
22006;DHT22;11167;46.988;15.470;2022-12-10T05:10:34;5.80;94.00
22006;DHT22;11167;46.988;15.470;2022-12-10T05:12:35;5.80;94.00
22006;DHT22;11167;46.988;15.470;2022-12-10T05:14:36;5.80;94.10
22006;DHT22;11167;46.988;15.470;2022-12-10T05:16:37;5.80;94.00
22006;DHT22;11167;46.988;15.470;2022-12-10T05:18:39;5.80;94.00
22006;DHT22;11167;46.988;15.470;2022-12-10T05:20:40;5.80;94.00
22006;DHT22;11167;46.988;15.470;2022-12-10T05:22:41;5.80;94.10
22006;DHT22;11167;46.988;15.470;2022-12-10T05:25:01;5.80;94.00
22006;DHT22;11167;46.988;15.470;2022-12-10T05:27:02;5.80;94.00
22006;DHT22;11167;46.988;15.470;2022-12-10T05:29:04;5.80;94.00
22006;DHT22;11167;46.988;15.470;2022-12-10T05:31:14;5.80;94.10
22006;DHT22;11167;46.988;15.470;2022-12-10T05:33:15;5.80;94.10
22006;DHT22;11167;46.988;15.470;2022-12-10T05:35:17;5.80;94.10
22006;DHT22;11167;46.988;15.470;2022-12-10T05:37:18;5.80;94.10
22006;DHT22;11167;46.988;15.470;2022-12-10T05:39:19;5.80;94.10
22006;DHT22;11167;46.988;15.470;2022-12-10T05:41:26;5.80;94.10
22006;DHT22;11167;46.988;15.470;2022-12-10T05:43:28;5.80;94.10
22006;DHT22;11167;46.988;15.470;2022-12-10T05:45:33;5.80;94.10
22006;DHT22;11167;46.988;15.470;2022-12-10T05:47:34;5.80;94.10
22006;DHT22;11167;46.988;15.470;2022-12-10T05:49:36;5.80;94.10
22006;DHT22;11167;46.988;15.470;2022-12-10T05:51:37;5.80;94.10
22006;DHT22;11167;46.988;15.470;2022-12-10T05:53:39;5.80;94.10
22006;DHT22;11167;46.988;15.470;2022-12-10T05:55:41;5.80;94.10
22006;DHT22;11167;46.988;15.470;2022-12-10T05:57:42;5.80;94.10
22006;DHT22;11167;46.988;15.470;2022-12-10T05:59:43;5.80;94.10
22006;DHT22;11167;46.988;15.470;2022-12-10T06:01:45;5.80;94.10
22006;DHT22;11167;46.988;15.470;2022-12-10T06:03:46;5.80;94.10
22006;DHT22;11167;46.988;15.470;2022-12-10T06:05:48;5.80;94.10
22006;DHT22;11167;46.988;15.470;2022-12-10T06:07:49;5.80;94.10
22006;DHT22;11167;46.988;15.470;2022-12-10T06:09:50;5.80;94.10
22006;DHT22;11167;46.988;15.470;2022-12-10T06:11:57;5.80;94.10
22006;DHT22;11167;46.988;15.470;2022-12-10T06:13:58;5.80;94.10
22006;DHT22;11167;46.988;15.470;2022-12-10T06:16:09;5.80;94.10
22006;DHT22;11167;46.988;15.470;2022-12-10T06:18:07;5.80;94.10
22006;DHT22;11167;46.988;15.470;2022-12-10T06:20:10;5.80;94.10
22006;DHT22;11167;46.988;15.470;2022-12-10T06:22:12;5.80;94.10
22006;DHT22;11167;46.988;15.470;2022-12-10T06:24:13;5.80;94.10
22006;DHT22;11167;46.988;15.470;2022-12-10T06:26:16;5.80;94.10
22006;DHT22;11167;46.988;15.470;2022-12-10T06:28:18;5.80;94.10
22006;DHT22;11167;46.988;15.470;2022-12-10T06:30:19;5.80;94.10
22006;DHT22;11167;46.988;15.470;2022-12-10T06:32:20;5.80;94.20
22006;DHT22;11167;46.988;15.470;2022-12-10T06:34:21;5.80;94.10
22006;DHT22;11167;46.988;15.470;2022-12-10T06:36:23;5.90;94.10
22006;DHT22;11167;46.988;15.470;2022-12-10T06:38:24;5.90;94.20
22006;DHT22;11167;46.988;15.470;2022-12-10T06:40:25;5.90;94.20
22006;DHT22;11167;46.988;15.470;2022-12-10T06:42:26;5.90;94.20
22006;DHT22;11167;46.988;15.470;2022-12-10T06:44:28;5.90;94.20
22006;DHT22;11167;46.988;15.470;2022-12-10T06:46:30;5.90;94.20
22006;DHT22;11167;46.988;15.470;2022-12-10T06:48:31;5.80;94.10
22006;DHT22;11167;46.988;15.470;2022-12-10T06:50:33;5.90;94.20
22006;DHT22;11167;46.988;15.470;2022-12-10T06:52:35;5.90;94.20
22006;DHT22;11167;46.988;15.470;2022-12-10T06:54:36;5.90;94.20
22006;DHT22;11167;46.988;15.470;2022-12-10T06:56:37;5.90;94.50
22006;DHT22;11167;46.988;15.470;2022-12-10T06:58:38;5.90;94.20
22006;DHT22;11167;46.988;15.470;2022-12-10T07:00:41;5.90;94.20
22006;DHT22;11167;46.988;15.470;2022-12-10T07:02:42;5.90;94.20
22006;DHT22;11167;46.988;15.470;2022-12-10T07:04:43;5.90;94.20
22006;DHT22;11167;46.988;15.470;2022-12-10T07:06:44;5.90;94.20
22006;DHT22;11167;46.988;15.470;2022-12-10T07:08:46;5.90;94.50
22006;DHT22;11167;46.988;15.470;2022-12-10T07:10:48;5.90;94.20
22006;DHT22;11167;46.988;15.470;2022-12-10T07:12:49;5.90;94.20
22006;DHT22;11167;46.988;15.470;2022-12-10T07:14:50;5.90;94.20
22006;DHT22;11167;46.988;15.470;2022-12-10T07:16:51;5.90;94.20
22006;DHT22;11167;46.988;15.470;2022-12-10T07:18:53;5.90;94.20
22006;DHT22;11167;46.988;15.470;2022-12-10T07:20:55;5.90;93.90
22006;DHT22;11167;46.988;15.470;2022-12-10T07:22:56;5.90;94.20
22006;DHT22;11167;46.988;15.470;2022-12-10T07:24:57;5.90;94.20
22006;DHT22;11167;46.988;15.470;2022-12-10T07:26:58;5.90;94.20
22006;DHT22;11167;46.988;15.470;2022-12-10T07:29:00;5.90;94.20
22006;DHT22;11167;46.988;15.470;2022-12-10T07:31:04;5.90;94.20
22006;DHT22;11167;46.988;15.470;2022-12-10T07:33:05;5.90;94.20
22006;DHT22;11167;46.988;15.470;2022-12-10T07:35:07;5.90;94.20
22006;DHT22;11167;46.988;15.470;2022-12-10T07:37:08;5.90;94.20
22006;DHT22;11167;46.988;15.470;2022-12-10T07:39:10;5.90;94.20
22006;DHT22;11167;46.988;15.470;2022-12-10T07:41:13;5.90;94.20
22006;DHT22;11167;46.988;15.470;2022-12-10T07:43:14;5.90;94.20
22006;DHT22;11167;46.988;15.470;2022-12-10T07:45:16;5.90;94.20
22006;DHT22;11167;46.988;15.470;2022-12-10T07:47:17;6.00;94.30
22006;DHT22;11167;46.988;15.470;2022-12-10T07:49:18;5.90;94.30
22006;DHT22;11167;46.988;15.470;2022-12-10T07:51:21;5.90;94.20
22006;DHT22;11167;46.988;15.470;2022-12-10T07:53:23;6.00;94.30
22006;DHT22;11167;46.988;15.470;2022-12-10T07:55:24;6.00;94.30
22006;DHT22;11167;46.988;15.470;2022-12-10T07:57:25;6.00;94.30
22006;DHT22;11167;46.988;15.470;2022-12-10T07:59:26;6.00;94.30
22006;DHT22;11167;46.988;15.470;2022-12-10T08:01:28;6.00;94.30
22006;DHT22;11167;46.988;15.470;2022-12-10T08:03:29;6.00;94.30
22006;DHT22;11167;46.988;15.470;2022-12-10T08:05:36;6.00;94.30
22006;DHT22;11167;46.988;15.470;2022-12-10T08:07:39;6.00;94.70
22006;DHT22;11167;46.988;15.470;2022-12-10T08:09:40;6.00;94.30
22006;DHT22;11167;46.988;15.470;2022-12-10T08:11:41;6.00;94.30
22006;DHT22;11167;46.988;15.470;2022-12-10T08:13:43;6.00;94.30
22006;DHT22;11167;46.988;15.470;2022-12-10T08:15:44;6.00;94.30
22006;DHT22;11167;46.988;15.470;2022-12-10T08:17:45;6.00;94.30
22006;DHT22;11167;46.988;15.470;2022-12-10T08:19:46;6.00;94.30
22006;DHT22;11167;46.988;15.470;2022-12-10T08:21:48;6.00;94.30
22006;DHT22;11167;46.988;15.470;2022-12-10T08:23:49;6.00;94.30
22006;DHT22;11167;46.988;15.470;2022-12-10T08:25:51;6.00;94.30
22006;DHT22;11167;46.988;15.470;2022-12-10T08:27:53;6.00;94.30
22006;DHT22;11167;46.988;15.470;2022-12-10T08:29:54;6.00;94.30
22006;DHT22;11167;46.988;15.470;2022-12-10T08:31:55;6.00;94.30
22006;DHT22;11167;46.988;15.470;2022-12-10T08:33:56;6.10;94.30
22006;DHT22;11167;46.988;15.470;2022-12-10T08:35:58;6.00;94.30
22006;DHT22;11167;46.988;15.470;2022-12-10T08:38:03;6.00;94.30
22006;DHT22;11167;46.988;15.470;2022-12-10T08:40:05;6.00;94.30
22006;DHT22;11167;46.988;15.470;2022-12-10T08:42:07;6.10;94.30
22006;DHT22;11167;46.988;15.470;2022-12-10T08:44:08;6.10;94.30
22006;DHT22;11167;46.988;15.470;2022-12-10T08:46:11;6.10;94.30
22006;DHT22;11167;46.988;15.470;2022-12-10T08:48:13;6.10;94.30
22006;DHT22;11167;46.988;15.470;2022-12-10T08:50:15;6.10;94.30
22006;DHT22;11167;46.988;15.470;2022-12-10T08:52:17;6.10;94.30
22006;DHT22;11167;46.988;15.470;2022-12-10T08:54:19;6.10;94.30
22006;DHT22;11167;46.988;15.470;2022-12-10T08:56:21;6.10;94.70
22006;DHT22;11167;46.988;15.470;2022-12-10T08:58:22;6.10;94.30
22006;DHT22;11167;46.988;15.470;2022-12-10T09:00:25;6.10;94.30
22006;DHT22;11167;46.988;15.470;2022-12-10T09:02:26;6.10;94.30
22006;DHT22;11167;46.988;15.470;2022-12-10T09:04:27;6.10;94.30
22006;DHT22;11167;46.988;15.470;2022-12-10T09:06:29;6.10;94.30
22006;DHT22;11167;46.988;15.470;2022-12-10T09:08:32;6.10;94.30
22006;DHT22;11167;46.988;15.470;2022-12-10T09:10:36;6.10;94.30
22006;DHT22;11167;46.988;15.470;2022-12-10T09:12:58;6.10;94.30
22006;DHT22;11167;46.988;15.470;2022-12-10T09:14:59;6.20;94.30
22006;DHT22;11167;46.988;15.470;2022-12-10T09:17:03;6.10;94.30
22006;DHT22;11167;46.988;15.470;2022-12-10T09:19:05;6.10;94.30
22006;DHT22;11167;46.988;15.470;2022-12-10T09:21:08;6.10;94.30
22006;DHT22;11167;46.988;15.470;2022-12-10T09:23:11;6.20;94.30
22006;DHT22;11167;46.988;15.470;2022-12-10T09:25:12;6.10;94.30
22006;DHT22;11167;46.988;15.470;2022-12-10T09:27:15;6.20;94.30
22006;DHT22;11167;46.988;15.470;2022-12-10T09:29:17;6.20;94.30
22006;DHT22;11167;46.988;15.470;2022-12-10T09:31:19;6.20;94.30
22006;DHT22;11167;46.988;15.470;2022-12-10T09:33:21;6.20;94.30
22006;DHT22;11167;46.988;15.470;2022-12-10T09:35:24;6.20;94.30
22006;DHT22;11167;46.988;15.470;2022-12-10T09:37:25;6.20;94.30
22006;DHT22;11167;46.988;15.470;2022-12-10T09:39:26;6.20;94.30
22006;DHT22;11167;46.988;15.470;2022-12-10T09:44:21;6.20;94.30
22006;DHT22;11167;46.988;15.470;2022-12-10T09:49:05;6.20;94.30
22006;DHT22;11167;46.988;15.470;2022-12-10T09:51:16;6.20;94.40
22006;DHT22;11167;46.988;15.470;2022-12-10T09:53:17;6.20;94.40
22006;DHT22;11167;46.988;15.470;2022-12-10T09:55:22;6.20;94.40
22006;DHT22;11167;46.988;15.470;2022-12-10T09:57:33;6.20;94.70
22006;DHT22;11167;46.988;15.470;2022-12-10T09:59:38;6.20;94.40
22006;DHT22;11167;46.988;15.470;2022-12-10T10:01:42;6.20;94.40
22006;DHT22;11167;46.988;15.470;2022-12-10T10:03:46;6.20;94.40
22006;DHT22;11167;46.988;15.470;2022-12-10T10:05:50;6.20;94.40
22006;DHT22;11167;46.988;15.470;2022-12-10T10:08:34;6.20;94.40
22006;DHT22;11167;46.988;15.470;2022-12-10T10:14:54;6.20;94.40
22006;DHT22;11167;46.988;15.470;2022-12-10T10:17:02;6.20;94.40
22006;DHT22;11167;46.988;15.470;2022-12-10T10:19:12;6.20;94.40
22006;DHT22;11167;46.988;15.470;2022-12-10T10:21:35;6.20;94.40
22006;DHT22;11167;46.988;15.470;2022-12-10T10:23:38;6.20;94.70
22006;DHT22;11167;46.988;15.470;2022-12-10T10:25:42;6.20;94.40
22006;DHT22;11167;46.988;15.470;2022-12-10T10:28:04;6.20;94.40
22006;DHT22;11167;46.988;15.470;2022-12-10T10:30:13;6.20;94.40
22006;DHT22;11167;46.988;15.470;2022-12-10T10:32:27;6.30;94.40
22006;DHT22;11167;46.988;15.470;2022-12-10T10:34:25;6.30;94.40
22006;DHT22;11167;46.988;15.470;2022-12-10T10:36:35;6.30;94.40
22006;DHT22;11167;46.988;15.470;2022-12-10T10:38:34;6.30;94.40
22006;DHT22;11167;46.988;15.470;2022-12-10T10:40:42;6.30;94.40
22006;DHT22;11167;46.988;15.470;2022-12-10T10:42:45;6.30;94.40
22006;DHT22;11167;46.988;15.470;2022-12-10T10:49:36;6.30;94.40
22006;DHT22;11167;46.988;15.470;2022-12-10T10:51:44;6.30;94.40
22006;DHT22;11167;46.988;15.470;2022-12-10T10:53:56;6.30;94.40
22006;DHT22;11167;46.988;15.470;2022-12-10T10:56:04;6.30;94.40
22006;DHT22;11167;46.988;15.470;2022-12-10T10:58:00;6.30;94.40
22006;DHT22;11167;46.988;15.470;2022-12-10T11:00:19;6.30;94.40
22006;DHT22;11167;46.988;15.470;2022-12-10T11:02:29;6.30;94.40
22006;DHT22;11167;46.988;15.470;2022-12-10T11:04:44;6.30;94.40
22006;DHT22;11167;46.988;15.470;2022-12-10T11:06:33;6.30;94.40
22006;DHT22;11167;46.988;15.470;2022-12-10T11:08:37;6.30;94.40
22006;DHT22;11167;46.988;15.470;2022-12-10T11:10:48;6.30;94.80
22006;DHT22;11167;46.988;15.470;2022-12-10T11:13:07;6.30;94.70
22006;DHT22;11167;46.988;15.470;2022-12-10T11:17:27;6.30;94.40
22006;DHT22;11167;46.988;15.470;2022-12-10T11:19:28;6.30;94.40
22006;DHT22;11167;46.988;15.470;2022-12-10T11:21:31;6.30;94.40
22006;DHT22;11167;46.988;15.470;2022-12-10T11:23:38;6.30;94.40
22006;DHT22;11167;46.988;15.470;2022-12-10T11:39:53;6.40;94.50
22006;DHT22;11167;46.988;15.470;2022-12-10T11:42:13;6.40;94.50
22006;DHT22;11167;46.988;15.470;2022-12-10T11:49:10;6.40;94.50
22006;DHT22;11167;46.988;15.470;2022-12-10T11:51:24;6.40;94.50
22006;DHT22;11167;46.988;15.470;2022-12-10T11:55:58;6.40;94.60
22006;DHT22;11167;46.988;15.470;2022-12-10T12:00:20;6.40;94.60
22006;DHT22;11167;46.988;15.470;2022-12-10T12:02:37;6.40;94.50
22006;DHT22;11167;46.988;15.470;2022-12-10T12:13:54;6.40;94.50
22006;DHT22;11167;46.988;15.470;2022-12-10T12:15:56;6.40;94.50
22006;DHT22;11167;46.988;15.470;2022-12-10T12:17:59;6.40;94.50
22006;DHT22;11167;46.988;15.470;2022-12-10T12:22:28;6.40;94.50
22006;DHT22;11167;46.988;15.470;2022-12-10T12:24:36;6.40;94.50
22006;DHT22;11167;46.988;15.470;2022-12-10T12:26:53;6.40;94.50
22006;DHT22;11167;46.988;15.470;2022-12-10T12:29:23;6.40;94.50
22006;DHT22;11167;46.988;15.470;2022-12-10T12:31:30;6.40;94.50
22006;DHT22;11167;46.988;15.470;2022-12-10T12:37:53;6.40;94.50
22006;DHT22;11167;46.988;15.470;2022-12-10T12:40:10;6.50;94.60
22006;DHT22;11167;46.988;15.470;2022-12-10T12:42:18;6.50;94.50
22006;DHT22;11167;46.988;15.470;2022-12-10T12:46:45;6.50;94.50
22006;DHT22;11167;46.988;15.470;2022-12-10T12:48:57;6.50;94.50
22006;DHT22;11167;46.988;15.470;2022-12-10T12:51:31;6.50;94.50
22006;DHT22;11167;46.988;15.470;2022-12-10T12:53:37;6.50;94.50
22006;DHT22;11167;46.988;15.470;2022-12-10T12:58:15;6.50;94.50
22006;DHT22;11167;46.988;15.470;2022-12-10T13:00:19;6.50;94.50
22006;DHT22;11167;46.988;15.470;2022-12-10T13:04:45;6.50;94.50
22006;DHT22;11167;46.988;15.470;2022-12-10T13:11:32;6.50;94.50
22006;DHT22;11167;46.988;15.470;2022-12-10T13:13:37;6.50;94.50
22006;DHT22;11167;46.988;15.470;2022-12-10T13:15:39;6.50;94.50
22006;DHT22;11167;46.988;15.470;2022-12-10T13:18:00;6.50;94.50
22006;DHT22;11167;46.988;15.470;2022-12-10T13:19:45;6.50;94.40
22006;DHT22;11167;46.988;15.470;2022-12-10T13:24:09;6.50;94.40
22006;DHT22;11167;46.988;15.470;2022-12-10T13:26:30;6.50;94.40
22006;DHT22;11167;46.988;15.470;2022-12-10T13:28:47;6.50;94.40
22006;DHT22;11167;46.988;15.470;2022-12-10T13:30:43;6.50;94.40
22006;DHT22;11167;46.988;15.470;2022-12-10T13:32:46;6.50;94.70
22006;DHT22;11167;46.988;15.470;2022-12-10T13:37:17;6.50;94.40
22006;DHT22;11167;46.988;15.470;2022-12-10T13:41:37;6.50;94.40
22006;DHT22;11167;46.988;15.470;2022-12-10T13:43:59;6.50;94.40
22006;DHT22;11167;46.988;15.470;2022-12-10T13:48:33;6.50;94.40
22006;DHT22;11167;46.988;15.470;2022-12-10T13:56:11;6.50;94.40
22006;DHT22;11167;46.988;15.470;2022-12-10T13:59:47;6.50;94.40
22006;DHT22;11167;46.988;15.470;2022-12-10T14:06:35;6.50;94.30
22006;DHT22;11167;46.988;15.470;2022-12-10T14:08:35;6.50;94.30
22006;DHT22;11167;46.988;15.470;2022-12-10T14:10:40;6.50;94.40
22006;DHT22;11167;46.988;15.470;2022-12-10T14:12:42;6.50;94.40
22006;DHT22;11167;46.988;15.470;2022-12-10T14:14:47;6.50;94.30
22006;DHT22;11167;46.988;15.470;2022-12-10T14:16:49;6.50;94.30
22006;DHT22;11167;46.988;15.470;2022-12-10T14:18:59;6.50;94.30
22006;DHT22;11167;46.988;15.470;2022-12-10T14:21:03;6.50;94.30
22006;DHT22;11167;46.988;15.470;2022-12-10T14:25:41;6.50;94.30
22006;DHT22;11167;46.988;15.470;2022-12-10T14:27:39;6.50;94.30
22006;DHT22;11167;46.988;15.470;2022-12-10T14:29:48;6.50;94.30
22006;DHT22;11167;46.988;15.470;2022-12-10T14:31:50;6.50;94.30
22006;DHT22;11167;46.988;15.470;2022-12-10T14:33:52;6.50;94.30
22006;DHT22;11167;46.988;15.470;2022-12-10T14:35:56;6.50;94.30
22006;DHT22;11167;46.988;15.470;2022-12-10T14:37:58;6.50;94.30
22006;DHT22;11167;46.988;15.470;2022-12-10T14:40:01;6.50;94.30
22006;DHT22;11167;46.988;15.470;2022-12-10T14:42:05;6.50;94.30
22006;DHT22;11167;46.988;15.470;2022-12-10T14:44:10;6.50;94.30
22006;DHT22;11167;46.988;15.470;2022-12-10T14:46:21;6.50;94.20
22006;DHT22;11167;46.988;15.470;2022-12-10T14:48:25;6.50;94.40
22006;DHT22;11167;46.988;15.470;2022-12-10T14:50:28;6.50;94.60
22006;DHT22;11167;46.988;15.470;2022-12-10T14:52:33;6.50;94.30
22006;DHT22;11167;46.988;15.470;2022-12-10T14:54:36;6.50;94.30